Time;durP1;ratioP1;P1;durP2;ratioP2;P2;SDS_P1;SDS_P2;PMS_P1;PMS_P2;Temp;Humidity;BMP_temperature;BMP_pressure;BME280_temperature;BME280_humidity;BME280_pressure;Samples;Min_cycle;Max_cycle;Signal;HPM_P1;HPM_P2
2021/07/20 00:00:26;;;;;;;10.00;7.45;;;;;;;17.95;77.67;96588.09;1705036;82;20920;-79
2021/07/20 00:02:55;;;;;;;10.55;7.12;;;;;;;17.95;77.83;96585.45;1721159;82;20945;-79
2021/07/20 00:05:27;;;;;;;9.75;7.42;;;;;;;17.92;77.97;96588.02;1696892;83;21036;-79
2021/07/20 00:07:57;;;;;;;9.78;6.92;;;;;;;17.91;77.88;96583.80;1723281;82;21279;-79
2021/07/20 00:10:39;;;;;;;8.30;6.78;;;;;;;17.91;77.93;96581.16;1692582;84;20928;-79
2021/07/20 00:13:05;;;;;;;;;;;;;;;17.92;78.13;96578.82;1719370;82;20920;-79
2021/07/20 00:15:32;;;;;;;9.25;7.67;;;;;;;17.92;78.41;96581.45;1722712;82;20161;-78
2021/07/20 00:18:00;;;;;;;10.38;7.70;;;;;;;17.90;78.17;96583.50;1718814;82;20940;-79
2021/07/20 00:20:28;;;;;;;12.63;7.75;;;;;;;17.89;78.26;96579.24;1707801;82;21301;-78
2021/07/20 00:22:54;;;;;;;9.08;7.20;;;;;;;17.89;78.36;96577.92;1711655;82;20964;-77
2021/07/20 00:25:19;;;;;;;9.28;6.90;;;;;;;17.90;78.26;96572.98;1720003;82;21209;-78
2021/07/20 00:27:45;;;;;;;9.53;7.78;;;;;;;17.88;78.36;96568.44;1715259;82;20928;-78
2021/07/20 00:30:11;;;;;;;12.78;8.50;;;;;;;17.88;78.60;96567.12;1709435;82;20933;-79
2021/07/20 00:32:38;;;;;;;11.88;8.43;;;;;;;17.86;78.57;96571.80;1707160;82;20974;-79
2021/07/20 00:35:06;;;;;;;12.18;8.18;;;;;;;17.83;78.61;96567.52;1697779;82;20951;-79
2021/07/20 00:37:32;;;;;;;11.10;7.60;;;;;;;17.81;78.51;96566.94;1694631;82;20976;-78
2021/07/20 00:39:58;;;;;;;11.55;8.90;;;;;;;17.83;78.57;96564.37;1707799;83;21005;-79
2021/07/20 00:42:23;;;;;;;13.38;9.28;;;;;;;17.85;78.69;96564.14;1702489;83;21400;-79
2021/07/20 00:44:49;;;;;;;11.95;8.50;;;;;;;17.82;78.67;96557.52;1709880;82;21019;-79
2021/07/20 00:47:15;;;;;;;10.90;8.73;;;;;;;17.81;78.92;96545.40;1707335;83;20920;-78
2021/07/20 00:49:41;;;;;;;11.65;8.80;;;;;;;17.78;78.89;96550.30;1696438;83;21281;-79
2021/07/20 00:52:08;;;;;;;12.73;9.13;;;;;;;17.78;79.06;96550.30;1710401;82;20938;-78
2021/07/20 00:54:33;;;;;;;12.73;10.65;;;;;;;17.77;78.81;96552.64;1708653;83;20929;-79
2021/07/20 00:57:00;;;;;;;12.98;10.00;;;;;;;17.81;78.98;96551.17;1667174;85;21225;-79
2021/07/20 00:59:26;;;;;;;13.30;10.10;;;;;;;17.82;78.91;96547.52;1695323;83;20952;-79
2021/07/20 01:01:52;;;;;;;13.13;9.78;;;;;;;17.80;78.92;96541.68;1704200;83;21249;-78
2021/07/20 01:04:18;;;;;;;13.10;9.48;;;;;;;17.74;79.08;96545.21;1698121;83;21104;-78
2021/07/20 01:06:44;;;;;;;13.72;10.35;;;;;;;17.70;79.07;96550.08;1697536;83;21305;-78
2021/07/20 01:09:10;;;;;;;11.38;9.40;;;;;;;17.72;79.37;96544.09;1658493;84;21050;-78
2021/07/20 01:11:35;;;;;;;12.75;9.68;;;;;;;17.73;79.57;96533.87;1707059;82;21068;-78
2021/07/20 01:14:03;;;;;;;13.45;10.90;;;;;;;17.70;79.57;96536.44;1710672;82;21293;-78
2021/07/20 01:16:33;;;;;;;12.68;9.90;;;;;;;17.69;79.66;96540.09;1707270;82;20936;-78
2021/07/20 01:19:02;;;;;;;11.63;9.15;;;;;;;17.73;80.00;96542.27;1708790;83;20977;-78
2021/07/20 01:21:28;;;;;;;12.43;10.15;;;;;;;17.75;79.81;96539.73;1696319;83;21337;-78
2021/07/20 01:23:56;;;;;;;11.15;9.93;;;;;;;17.74;79.87;96541.27;1696270;83;20973;-78
2021/07/20 01:26:21;;;;;;;13.28;10.23;;;;;;;17.73;79.92;96540.44;1710447;82;21310;-78
2021/07/20 01:28:47;;;;;;;15.15;10.58;;;;;;;17.69;79.92;96534.83;1680685;85;20980;-78
2021/07/20 01:31:16;;;;;;;12.95;10.32;;;;;;;17.70;80.17;96540.37;1694442;83;20942;-78
2021/07/20 01:33:47;;;;;;;13.40;10.03;;;;;;;17.68;80.22;96542.42;1671416;83;20975;-78
2021/07/20 01:36:12;;;;;;;14.10;11.12;;;;;;;17.68;80.01;96546.88;1706007;83;21246;-78
2021/07/20 01:38:38;;;;;;;11.30;9.98;;;;;;;17.68;80.14;96541.63;1696925;83;21052;-77
2021/07/20 01:41:08;;;;;;;12.47;9.88;;;;;;;17.68;80.21;96539.00;1711777;82;20965;-78
2021/07/20 01:43:35;;;;;;;13.13;10.23;;;;;;;17.66;80.28;96532.63;1677053;84;21299;-78
2021/07/20 01:46:02;;;;;;;12.47;10.10;;;;;;;17.66;80.44;96533.94;1706443;82;21262;-78
2021/07/20 01:48:32;;;;;;;12.58;9.80;;;;;;;17.66;80.40;96535.77;1703304;84;21041;-78
2021/07/20 01:50:58;;;;;;;13.85;10.50;;;;;;;17.67;80.43;96533.42;1706296;82;21218;-78
2021/07/20 01:53:24;;;;;;;11.97;9.23;;;;;;;17.66;80.41;96534.45;1707360;82;20932;-78
2021/07/20 01:55:49;;;;;;;14.83;10.35;;;;;;;17.66;80.38;96535.77;1718933;82;20959;-78
2021/07/20 01:58:15;;;;;;;13.53;10.03;;;;;;;17.65;80.17;96541.53;1710169;82;21318;-78
2021/07/20 02:00:41;;;;;;;13.15;10.15;;;;;;;17.62;80.07;96539.87;1709132;82;20965;-78
2021/07/20 02:11:05;;;;;;;13.20;10.68;;;;;;;17.49;79.79;96537.40;1683354;83;21238;-78
2021/07/20 02:13:40;;;;;;;13.48;11.15;;;;;;;17.48;79.82;96537.91;1716322;82;21324;-78
2021/07/20 02:16:03;;;;;;;13.98;10.93;;;;;;;17.44;79.66;96532.02;1706237;82;20952;-77
2021/07/20 02:18:29;;;;;;;15.95;10.70;;;;;;;17.42;79.89;96534.06;1712104;82;20936;-78
2021/07/20 02:20:56;;;;;;;13.78;10.80;;;;;;;17.43;79.96;96542.23;1707323;82;20980;-78
2021/07/20 02:23:21;;;;;;;16.32;10.93;;;;;;;17.39;79.62;96541.34;1712412;82;21317;-77
2021/07/20 02:25:47;;;;;;;13.58;11.10;;;;;;;17.43;79.86;96539.61;1680676;83;20919;-78
2021/07/20 02:28:14;;;;;;;13.03;10.80;;;;;;;17.45;79.70;96541.50;1712624;82;21003;-77
2021/07/20 02:30:40;;;;;;;15.58;11.97;;;;;;;17.42;79.66;96543.26;1720511;82;21531;-78
2021/07/20 02:33:06;;;;;;;13.98;10.60;;;;;;;17.36;79.58;96547.03;1719028;82;21040;-78
2021/07/20 02:35:31;;;;;;;13.85;10.80;;;;;;;17.38;79.73;96549.44;1719661;82;20968;-78
2021/07/20 02:37:58;;;;;;;14.75;10.53;;;;;;;17.39;79.49;96553.67;1719481;82;21322;-78
2021/07/20 02:40:24;;;;;;;16.10;11.40;;;;;;;17.34;79.19;96549.08;1718378;82;20928;-77
2021/07/20 02:42:52;;;;;;;16.80;12.25;;;;;;;17.31;79.11;96552.16;1719229;82;20948;-78
2021/07/20 02:45:17;;;;;;;16.40;11.20;;;;;;;17.28;79.12;96553.11;1702011;82;20983;-77
2021/07/20 02:47:43;;;;;;;18.00;12.05;;;;;;;17.23;79.05;96554.26;1719488;82;21003;-77
2021/07/20 02:50:13;;;;;;;15.83;11.40;;;;;;;17.17;79.00;96556.45;1718856;82;21373;-79
2021/07/20 02:52:42;;;;;;;14.15;10.72;;;;;;;17.13;79.23;96557.41;1717481;82;21031;-79
2021/07/20 02:55:10;;;;;;;15.35;11.40;;;;;;;17.10;78.99;96556.54;1713097;82;21016;-78
2021/07/20 02:57:37;;;;;;;14.15;10.60;;;;;;;17.08;79.05;96562.49;1721506;82;20943;-78
2021/07/20 03:00:09;;;;;;;14.30;11.22;;;;;;;17.08;79.00;96565.12;1716262;82;21285;-79
2021/07/20 03:02:37;;;;;;;14.10;11.05;;;;;;;17.08;79.18;96569.89;1708512;82;20995;-79
2021/07/20 03:05:05;;;;;;;12.50;10.23;;;;;;;17.09;79.44;96569.38;1718785;82;20988;-79
2021/07/20 03:07:31;;;;;;;13.93;9.98;;;;;;;17.08;79.36;96563.80;1685624;83;20984;-79
2021/07/20 03:09:56;;;;;;;12.60;10.72;;;;;;;17.08;79.25;96566.43;1711479;82;21266;-79
2021/07/20 03:12:23;;;;;;;14.23;10.30;;;;;;;17.04;79.00;96561.33;1719752;82;20996;-79
2021/07/20 03:14:49;;;;;;;15.98;10.38;;;;;;;17.03;79.17;96562.35;1689855;83;21288;-79
2021/07/20 03:17:15;;;;;;;13.30;9.73;;;;;;;17.00;79.33;96560.17;1688053;82;20980;-78
2021/07/20 03:19:41;;;;;;;12.85;9.88;;;;;;;17.01;79.79;96557.32;1720661;82;20939;-79
2021/07/20 03:22:08;;;;;;;12.98;10.43;;;;;;;16.99;79.23;96560.68;1641028;83;21341;-78
2021/07/20 03:24:36;;;;;;;15.00;11.03;;;;;;;16.97;79.24;96557.47;1719008;82;20927;-79
2021/07/20 03:27:04;;;;;;;12.85;9.43;;;;;;;16.96;79.30;96553.25;1719574;82;21004;-78
2021/07/20 03:29:30;;;;;;;12.33;9.48;;;;;;;16.94;79.39;96551.86;1717312;82;21007;-79
2021/07/20 03:31:55;;;;;;;13.98;10.28;;;;;;;16.90;79.40;96551.47;1708493;82;20927;-78
2021/07/20 03:34:21;;;;;;;12.25;9.53;;;;;;;16.83;79.40;96554.68;1684935;84;21273;-78
2021/07/20 03:36:47;;;;;;;11.68;9.88;;;;;;;16.82;79.45;96555.70;1708967;82;20943;-78
2021/07/20 03:39:14;;;;;;;11.57;9.00;;;;;;;16.80;79.53;96549.36;1686539;84;20976;-78
2021/07/20 03:41:40;;;;;;;13.45;10.35;;;;;;;16.79;79.76;96547.76;1681160;85;20974;-79
2021/07/20 03:44:06;;;;;;;14.35;10.28;;;;;;;16.82;79.64;96549.66;1673633;85;20964;-78
2021/07/20 03:46:32;;;;;;;16.15;11.90;;;;;;;16.80;79.43;96548.05;1695883;83;21257;-78
2021/07/20 03:48:58;;;;;;;14.00;11.22;;;;;;;16.78;79.10;96546.66;1692794;83;21017;-78
2021/07/20 03:51:23;;;;;;;14.50;10.75;;;;;;;16.76;79.26;96548.19;1697141;83;20964;-78
2021/07/20 03:53:49;;;;;;;15.63;10.18;;;;;;;16.78;79.07;96549.28;1695528;83;20916;-78
2021/07/20 03:56:15;;;;;;;17.67;12.13;;;;;;;16.78;78.94;96544.84;1693502;83;20992;-78
2021/07/20 03:58:42;;;;;;;16.30;11.73;;;;;;;16.77;78.30;96543.23;1679946;85;21000;-78
2021/07/20 04:01:07;;;;;;;14.15;11.73;;;;;;;16.76;78.25;96541.63;1680729;85;21302;-78
2021/07/20 04:03:34;;;;;;;17.65;12.18;;;;;;;16.71;78.10;96548.02;1692287;83;21056;-80
2021/07/20 04:06:02;;;;;;;15.43;10.95;;;;;;;16.68;78.46;96548.97;1708449;83;20940;-79
2021/07/20 04:08:29;;;;;;;14.38;10.03;;;;;;;16.63;78.25;96546.97;1680288;85;21371;-79
2021/07/20 04:10:55;;;;;;;15.83;12.45;;;;;;;16.63;78.66;96548.78;1685078;84;20993;-79
2021/07/20 04:13:21;;;;;;;17.10;11.25;;;;;;;16.64;78.72;96550.39;1695472;83;21334;-79
2021/07/20 04:15:56;;;;;;;17.90;13.40;;;;;;;16.63;78.90;96559.28;1692889;83;20993;-79
2021/07/20 04:18:21;;;;;;;17.80;12.37;;;;;;;16.61;78.79;96558.19;1703888;83;20905;-80
2021/07/20 04:20:47;;;;;;;18.42;12.10;;;;;;;16.51;78.54;96546.86;1697161;83;20953;-79
2021/07/20 04:23:14;;;;;;;18.40;12.43;;;;;;;16.48;79.10;96545.98;1689929;83;21242;-80
2021/07/20 04:25:43;;;;;;;17.55;12.20;;;;;;;16.53;79.02;96549.77;1710470;83;21001;-79
2021/07/20 04:28:08;;;;;;;17.42;13.03;;;;;;;16.61;79.48;96544.27;1693644;83;21000;-79
2021/07/20 04:30:36;;;;;;;18.90;12.98;;;;;;;16.63;79.18;96540.91;1688116;82;20972;-79
2021/07/20 04:33:02;;;;;;;18.10;12.93;;;;;;;16.62;78.99;96545.36;1692703;83;20969;-80
2021/07/20 04:35:28;;;;;;;18.75;12.37;;;;;;;16.63;79.13;96543.54;1672483;85;20964;-78
2021/07/20 04:37:54;;;;;;;16.67;12.80;;;;;;;16.66;79.27;96541.28;1696344;83;20968;-79
2021/07/20 04:40:20;;;;;;;16.90;12.20;;;;;;;16.72;79.37;96540.44;1705325;82;21006;-79
2021/07/20 04:42:46;;;;;;;21.17;13.55;;;;;;;16.79;79.60;96537.77;1705151;82;20956;-79
2021/07/20 04:45:13;;;;;;;18.95;12.47;;;;;;;16.83;79.28;96542.88;1705823;82;21338;-79
2021/07/20 04:47:40;;;;;;;19.30;13.28;;;;;;;16.80;78.87;96546.73;1712755;82;20979;-79
2021/07/20 04:50:12;;;;;;;20.85;13.18;;;;;;;16.83;78.82;96552.05;1719344;82;21277;-78
2021/07/20 04:52:39;;;;;;;21.25;12.80;;;;;;;16.84;78.58;96547.61;1676399;84;20989;-79
2021/07/20 04:55:07;;;;;;;19.20;14.40;;;;;;;16.84;78.46;96552.34;1706104;82;20979;-79
2021/07/20 04:57:35;;;;;;;18.73;12.73;;;;;;;16.77;78.21;96549.80;1672776;84;21275;-79
2021/07/20 05:00:01;;;;;;;18.07;13.20;;;;;;;16.76;78.72;96548.19;1707605;82;20967;-77
2021/07/20 05:02:27;;;;;;;18.57;13.05;;;;;;;16.83;79.01;96547.31;1679554;83;20991;-78
2021/07/20 05:04:52;;;;;;;18.17;13.08;;;;;;;16.84;78.87;96545.78;1681891;84;20964;-78
2021/07/20 05:07:18;;;;;;;17.12;11.70;;;;;;;16.86;78.82;96542.94;1709593;82;21004;-78
2021/07/20 05:09:44;;;;;;;17.90;13.25;;;;;;;16.92;78.95;96552.56;1719532;82;21293;-77
2021/07/20 05:12:11;;;;;;;19.60;13.15;;;;;;;16.97;78.62;96552.73;1714098;82;20931;-78
2021/07/20 05:14:37;;;;;;;18.23;12.78;;;;;;;16.95;78.44;96550.33;1699432;82;21241;-78
2021/07/20 05:17:05;;;;;;;18.77;13.40;;;;;;;16.91;78.02;96555.70;1695372;84;20969;-78
2021/07/20 05:19:30;;;;;;;19.25;13.75;;;;;;;16.93;78.40;96562.87;1672273;84;20996;-77
2021/07/20 05:21:58;;;;;;;19.95;12.95;;;;;;;16.89;78.19;96566.92;1699494;82;21279;-77
2021/07/20 05:24:23;;;;;;;18.82;12.05;;;;;;;16.91;78.48;96571.95;1716185;82;20941;-77
2021/07/20 05:26:49;;;;;;;18.87;12.75;;;;;;;16.91;78.42;96570.64;1713803;82;21046;-77
2021/07/20 05:29:20;;;;;;;18.85;12.40;;;;;;;16.89;78.13;96578.73;1717500;82;20988;-77
2021/07/20 05:31:46;;;;;;;18.05;12.10;;;;;;;16.86;78.13;96575.75;1688973;84;20984;-77
2021/07/20 05:34:14;;;;;;;15.78;11.75;;;;;;;16.83;77.88;96573.56;1720464;82;21026;-78
2021/07/20 05:36:40;;;;;;;22.25;13.40;;;;;;;16.75;77.57;96578.05;1721120;81;21298;-78
2021/07/20 05:39:07;;;;;;;18.15;12.70;;;;;;;16.72;77.62;96584.23;1690635;83;21026;-78
2021/07/20 05:41:32;;;;;;;18.73;12.70;;;;;;;16.70;77.72;96587.08;1723147;83;21011;-77
2021/07/20 05:43:58;;;;;;;17.25;12.60;;;;;;;16.67;77.66;96594.08;1710990;82;20960;-79
2021/07/20 05:46:24;;;;;;;17.90;11.83;;;;;;;16.67;77.79;96587.52;1695165;83;20976;-79
2021/07/20 05:48:50;;;;;;;22.27;12.58;;;;;;;16.67;77.34;96582.27;1721389;83;21357;-79
2021/07/20 05:51:16;;;;;;;20.95;13.18;;;;;;;16.66;77.49;96580.64;1716996;83;21037;-79
2021/07/20 05:53:42;;;;;;;20.02;12.37;;;;;;;16.70;77.85;96584.97;1716358;82;20995;-79
2021/07/20 05:56:07;;;;;;;18.62;12.47;;;;;;;16.74;78.02;96588.76;1719468;82;21063;-79
2021/07/20 05:58:33;;;;;;;17.45;12.53;;;;;;;16.77;77.82;96586.53;1708195;83;20919;-79
2021/07/20 06:01:01;;;;;;;16.00;12.63;;;;;;;16.78;77.93;96585.52;1716387;82;20923;-79
2021/07/20 06:03:27;;;;;;;23.80;14.35;;;;;;;16.82;78.17;96587.70;1692469;84;20925;-78
2021/07/20 06:05:55;;;;;;;16.90;13.22;;;;;;;16.86;77.84;96587.55;1697861;83;21034;-78
2021/07/20 06:08:24;;;;;;;20.27;13.50;;;;;;;16.86;77.67;96582.31;1722260;83;21043;-79
2021/07/20 06:10:56;;;;;;;23.22;12.90;;;;;;;16.88;77.47;96587.63;1719616;83;21053;-78
2021/07/20 06:13:24;;;;;;;19.77;12.80;;;;;;;16.88;77.58;96586.31;1677935;84;20948;-78
2021/07/20 06:15:50;;;;;;;20.57;13.08;;;;;;;16.88;77.52;96588.14;1706255;83;21066;-78
2021/07/20 06:18:16;;;;;;;20.02;13.13;;;;;;;16.86;77.30;96588.87;1719034;82;21014;-77
2021/07/20 06:20:50;;;;;;;20.32;13.65;;;;;;;16.86;77.52;96592.80;1682245;84;21004;-78
2021/07/20 06:23:16;;;;;;;20.52;14.70;;;;;;;16.93;77.98;96600.13;1710985;83;21007;-78
2021/07/20 06:25:42;;;;;;;23.40;14.63;;;;;;;16.94;77.93;96600.42;1692707;84;21016;-78
2021/07/20 06:28:08;;;;;;;19.48;14.40;;;;;;;16.98;77.64;96602.39;1710548;83;21317;-78
2021/07/20 06:30:34;;;;;;;21.68;15.25;;;;;;;17.00;77.50;96607.42;1722368;83;20912;-78
2021/07/20 06:32:59;;;;;;;22.90;14.95;;;;;;;16.95;77.19;96598.89;1721219;83;20920;-78
2021/07/20 06:35:25;;;;;;;22.25;15.55;;;;;;;16.94;77.51;96601.73;1715429;82;20944;-78
2021/07/20 06:37:51;;;;;;;21.85;15.98;;;;;;;16.91;77.24;96601.63;1716849;82;21359;-78
2021/07/20 06:40:19;;;;;;;22.87;15.68;;;;;;;16.89;77.16;96603.67;1718277;82;20981;-78
2021/07/20 06:42:47;;;;;;;21.05;14.68;;;;;;;16.91;77.49;96609.50;1709817;82;21380;-78
2021/07/20 06:45:14;;;;;;;20.02;15.23;;;;;;;16.93;77.60;96614.05;1716935;82;21006;-78
2021/07/20 06:47:42;;;;;;;20.65;14.55;;;;;;;16.97;77.55;96617.05;1706082;82;21076;-78
2021/07/20 06:50:09;;;;;;;22.17;16.02;;;;;;;16.98;77.25;96615.51;1718339;82;21494;-78
2021/07/20 06:52:35;;;;;;;20.32;15.32;;;;;;;16.92;76.72;96616.86;1703855;82;20937;-77
2021/07/20 06:55:02;;;;;;;22.90;16.73;;;;;;;16.83;76.81;96614.23;1712301;82;20956;-78
2021/07/20 06:57:28;;;;;;;25.72;16.60;;;;;;;16.79;76.96;96615.18;1708403;82;20963;-78
2021/07/20 06:59:54;;;;;;;19.12;14.15;;;;;;;16.86;77.41;96608.04;1709971;82;20904;-78
2021/07/20 07:02:20;;;;;;;21.77;14.53;;;;;;;17.00;77.37;96606.10;1707946;82;21253;-78
2021/07/20 07:05:03;;;;;;;21.52;16.27;;;;;;;17.13;77.31;96607.80;1712236;82;20915;-77
2021/07/20 07:07:29;;;;;;;19.87;15.25;;;;;;;17.16;76.47;96607.37;1700040;82;20974;-78
2021/07/20 07:09:56;;;;;;;21.60;16.87;;;;;;;17.21;76.39;96614.08;1706653;82;21042;-78
2021/07/20 07:12:22;;;;;;;27.17;17.73;;;;;;;17.20;75.98;96611.16;1718776;82;20988;-77
2021/07/20 07:14:48;;;;;;;21.97;18.73;;;;;;;17.14;76.45;96609.41;1671909;84;20963;-77
2021/07/20 07:17:13;;;;;;;25.82;17.92;;;;;;;17.22;76.79;96606.48;1666172;83;20913;-78
2021/07/20 07:19:39;;;;;;;23.32;17.82;;;;;;;17.22;76.04;96603.86;1717830;82;20913;-78
2021/07/20 07:22:05;;;;;;;23.83;19.55;;;;;;;17.26;76.44;96607.68;1707370;82;20981;-78
2021/07/20 07:24:31;;;;;;;22.90;18.70;;;;;;;17.34;76.64;96611.31;1711112;82;20933;-79
2021/07/20 07:26:57;;;;;;;23.75;19.50;;;;;;;17.42;76.71;96607.09;1691202;84;21019;-78
2021/07/20 07:29:22;;;;;;;25.72;20.40;;;;;;;17.52;76.84;96601.31;1667343;84;20980;-78
2021/07/20 07:31:49;;;;;;;24.60;18.92;;;;;;;17.63;76.16;96607.16;1706458;82;20931;-79
2021/07/20 07:34:15;;;;;;;22.70;19.73;;;;;;;17.62;75.26;96610.30;1717926;82;20931;-79
2021/07/20 07:36:44;;;;;;;25.23;21.05;;;;;;;17.62;75.84;96607.67;1707264;82;21264;-79
2021/07/20 07:39:12;;;;;;;24.37;21.00;;;;;;;17.66;75.55;96610.66;1710547;82;21062;-79
2021/07/20 07:41:39;;;;;;;29.05;21.48;;;;;;;17.59;75.50;96608.63;1699193;82;21075;-79
2021/07/20 07:44:10;;;;;;;25.25;21.45;;;;;;;17.54;75.33;96616.34;1717001;82;21011;-79
2021/07/20 07:46:38;;;;;;;22.87;18.57;;;;;;;17.42;75.13;96616.81;1718417;82;21035;-79
2021/07/20 07:49:04;;;;;;;22.42;19.02;;;;;;;17.30;75.83;96618.84;1721015;82;21454;-78
2021/07/20 07:51:32;;;;;;;22.40;20.17;;;;;;;17.28;75.81;96620.08;1670941;83;21015;-79
2021/07/20 07:53:58;;;;;;;24.32;21.35;;;;;;;17.21;75.76;96616.70;1719536;82;20889;-78
2021/07/20 07:56:26;;;;;;;23.55;20.75;;;;;;;17.17;75.61;96618.96;1700161;82;20947;-80
2021/07/20 07:58:52;;;;;;;24.67;22.05;;;;;;;17.13;75.36;96619.11;1700246;82;20908;-79
2021/07/20 08:01:18;;;;;;;24.40;21.68;;;;;;;17.12;75.87;96620.13;1707693;82;21280;-78
2021/07/20 08:03:43;;;;;;;25.57;19.95;;;;;;;17.13;76.00;96612.55;1721144;82;21308;-80
2021/07/20 08:06:10;;;;;;;25.57;20.65;;;;;;;17.22;76.12;96619.11;1690221;82;20962;-78
2021/07/20 08:08:37;;;;;;;24.23;20.55;;;;;;;17.32;75.89;96618.61;1712433;82;21324;-80
2021/07/20 08:11:05;;;;;;;24.65;22.02;;;;;;;17.39;75.79;96616.20;1716143;82;20980;-79
2021/07/20 08:13:31;;;;;;;25.27;20.95;;;;;;;17.43;75.63;96607.91;1715344;82;21011;-78
2021/07/20 08:15:58;;;;;;;23.87;21.27;;;;;;;17.56;75.73;96605.10;1720351;82;20972;-78
2021/07/20 08:18:24;;;;;;;24.10;21.33;;;;;;;17.72;76.46;96602.42;1719094;82;21233;-78
2021/07/20 08:20:54;;;;;;;23.10;18.37;;;;;;;17.93;75.80;96602.77;1704511;82;20927;-80
2021/07/20 08:23:18;;;;;;;22.27;19.98;;;;;;;18.17;75.44;96601.02;1715633;82;20932;-78
2021/07/20 08:25:44;;;;;;;22.20;19.70;;;;;;;18.45;74.93;96598.30;1718418;82;20956;-79
2021/07/20 08:28:16;;;;;;;21.93;19.73;;;;;;;18.72;74.76;96600.03;1719365;82;21272;-79
2021/07/20 08:30:45;;;;;;;21.40;19.23;;;;;;;19.00;73.78;96600.66;1707885;82;20996;-79
2021/07/20 08:33:21;;;;;;;22.70;19.90;;;;;;;19.24;72.83;96600.95;1718926;82;20979;-78
2021/07/20 08:35:48;;;;;;;20.70;18.62;;;;;;;19.27;72.01;96600.48;1708135;82;20922;-79
2021/07/20 08:38:14;;;;;;;20.88;18.67;;;;;;;19.32;72.76;96606.37;1718585;82;20937;-79
2021/07/20 08:41:01;;;;;;;21.93;18.73;;;;;;;19.39;71.76;96605.22;1703236;82;20987;-79
2021/07/20 08:44:07;;;;;;;20.10;17.90;;;;;;;19.41;71.10;96599.72;1699801;83;21000;-79
2021/07/20 08:46:53;;;;;;;20.10;17.92;;;;;;;19.43;71.43;96597.65;1678138;84;20967;-78
2021/07/20 08:49:37;;;;;;;22.00;18.87;;;;;;;19.57;70.83;96602.19;1692127;83;21343;-78
2021/07/20 08:52:31;;;;;;;24.70;20.85;;;;;;;19.61;71.05;96604.63;1695947;83;21285;-79
2021/07/20 08:55:08;;;;;;;23.80;21.25;;;;;;;19.59;70.81;96604.06;1688624;83;21297;-79
2021/07/20 08:57:55;;;;;;;23.62;21.10;;;;;;;19.62;71.51;96610.19;1693717;83;20917;-80
2021/07/20 09:00:26;;;;;;;23.18;19.45;;;;;;;19.64;70.49;96610.75;1670971;84;21022;-80
2021/07/20 09:03:04;;;;;;;22.67;20.10;;;;;;;19.64;70.07;96608.91;1680895;84;20983;-79
2021/07/20 09:05:50;;;;;;;24.07;19.48;;;;;;;19.64;70.58;96605.48;1672223;84;20972;-80
2021/07/20 09:08:24;;;;;;;24.00;20.17;;;;;;;19.72;71.21;96609.08;1674861;84;21364;-79
2021/07/20 09:11:38;;;;;;;24.70;21.57;;;;;;;19.85;70.19;96600.91;1680355;84;21078;-79
2021/07/20 09:14:54;;;;;;;25.37;19.50;;;;;;;20.00;69.89;96601.69;1674861;84;21037;-79
2021/07/20 09:17:42;;;;;;;22.60;20.20;;;;;;;19.92;68.51;96600.23;1675453;83;20953;-79
2021/07/20 09:20:19;;;;;;;25.12;20.97;;;;;;;19.79;68.69;96602.63;1697944;83;20909;-79
2021/07/20 09:22:55;;;;;;;23.20;20.02;;;;;;;19.88;69.10;96604.91;1663286;84;21327;-79
2021/07/20 09:25:42;;;;;;;23.85;21.07;;;;;;;19.93;69.82;96608.95;1693133;83;20933;-79
2021/07/20 09:28:13;;;;;;;25.70;21.37;;;;;;;19.97;69.93;96607.44;1675513;84;21319;-79
2021/07/20 09:30:46;;;;;;;27.22;22.05;;;;;;;20.06;70.17;96608.67;1696690;83;21346;-79
2021/07/20 09:33:38;;;;;;;26.10;23.22;;;;;;;20.12;69.74;96606.92;1689678;83;21000;-79
2021/07/20 09:36:12;;;;;;;22.05;19.20;;;;;;;20.13;69.39;96599.28;1657537;85;21062;-79
2021/07/20 09:38:55;;;;;;;24.30;19.95;;;;;;;20.20;68.75;96598.12;1654949;85;20994;-79
2021/07/20 09:41:48;;;;;;;23.10;20.17;;;;;;;20.04;68.75;96601.52;1697561;83;20976;-79
2021/07/20 09:44:41;;;;;;;22.73;20.43;;;;;;;20.06;69.09;96604.72;1661686;85;20960;-79
2021/07/20 09:47:26;;;;;;;21.37;19.20;;;;;;;20.05;68.96;96605.23;1711693;82;20995;-79
2021/07/20 09:50:16;;;;;;;27.62;22.70;;;;;;;20.07;68.73;96609.76;1678698;84;20943;-79
2021/07/20 09:53:15;;;;;;;28.80;20.45;;;;;;;20.02;68.66;96610.19;1686777;84;20901;-79
2021/07/20 09:56:20;;;;;;;22.98;19.65;;;;;;;20.01;69.15;96602.80;1719175;82;20920;-79
2021/07/20 09:59:17;;;;;;;23.67;20.65;;;;;;;20.06;68.53;96609.99;1706210;82;20976;-79
2021/07/20 10:01:46;;;;;;;24.67;20.30;;;;;;;20.08;68.66;96607.92;1718568;82;21352;-79
2021/07/20 10:04:29;;;;;;;25.43;20.95;;;;;;;20.17;69.02;96605.69;1718870;82;20940;-79
2021/07/20 10:07:15;;;;;;;23.12;19.67;;;;;;;20.32;68.29;96604.64;1708369;82;20900;-79
2021/07/20 10:09:56;;;;;;;27.50;20.95;;;;;;;20.35;67.84;96606.30;1715747;82;21372;-79
2021/07/20 10:12:49;;;;;;;23.18;20.72;;;;;;;20.31;68.26;96600.40;1716097;82;20999;-79
2021/07/20 10:15:16;;;;;;;23.35;18.77;;;;;;;20.33;69.11;96597.80;1715435;82;20900;-79
2021/07/20 10:17:51;;;;;;;22.98;19.67;;;;;;;20.26;67.86;96595.04;1722417;82;20905;-78
2021/07/20 10:20:23;;;;;;;23.45;20.90;;;;;;;20.22;67.95;96597.36;1719402;82;21296;-79
2021/07/20 10:23:10;;;;;;;24.82;22.15;;;;;;;20.16;67.41;96592.21;1701711;82;20952;-79
2021/07/20 10:25:50;;;;;;;20.90;18.42;;;;;;;20.29;68.83;96585.33;1690779;84;21304;-79
2021/07/20 10:28:34;;;;;;;21.25;19.10;;;;;;;20.50;68.50;96594.41;1708770;82;20963;-80
2021/07/20 10:31:16;;;;;;;21.93;19.48;;;;;;;20.59;69.21;96588.50;1705477;82;21399;-79
2021/07/20 10:33:48;;;;;;;21.48;19.07;;;;;;;20.71;69.08;96586.31;1691063;82;21074;-80
2021/07/20 10:36:29;;;;;;;20.37;18.10;;;;;;;20.83;69.31;96574.63;1685276;84;20983;-79
2021/07/20 10:39:08;;;;;;;22.37;18.25;;;;;;;20.87;67.43;96578.38;1685830;83;20975;-79
2021/07/20 10:42:05;;;;;;;18.52;16.52;;;;;;;20.86;67.38;96581.27;1663005;85;21010;-80
2021/07/20 10:44:54;;;;;;;18.82;16.87;;;;;;;21.03;68.01;96575.96;1678850;84;21013;-79
2021/07/20 10:47:22;;;;;;;18.17;16.37;;;;;;;21.34;67.47;96574.56;1687797;82;20939;-80
2021/07/20 10:50:01;;;;;;;16.42;14.60;;;;;;;21.51;66.77;96570.82;1670857;85;22154;-79
2021/07/20 10:53:09;;;;;;;16.82;15.18;;;;;;;21.66;66.88;96570.73;1676463;85;20955;-79
2021/07/20 10:56:10;;;;;;;15.80;14.20;;;;;;;21.83;67.64;96568.28;1685266;83;21291;-79
2021/07/20 10:59:16;;;;;;;15.50;13.62;;;;;;;22.04;66.61;96567.95;1693778;83;21344;-78
2021/07/20 11:02:12;;;;;;;14.58;11.35;;;;;;;22.10;66.51;96566.98;1697898;83;21004;-78
2021/07/20 11:04:57;;;;;;;12.98;11.57;;;;;;;22.20;65.15;96565.48;1675247;85;21013;-78
2021/07/20 11:07:34;;;;;;;12.55;11.00;;;;;;;22.36;63.49;96555.31;1685010;85;20920;-77
2021/07/20 11:10:21;;;;;;;13.85;11.78;;;;;;;22.33;64.55;96559.27;1693200;83;20988;-77
2021/07/20 11:12:54;;;;;;;11.73;10.45;;;;;;;22.22;61.99;96559.42;1679483;84;21249;-78
2021/07/20 11:15:21;;;;;;;18.65;12.53;;;;;;;22.29;63.22;96563.97;1706478;83;21289;-79
2021/07/20 11:17:49;;;;;;;13.80;12.23;;;;;;;22.34;63.15;96554.77;1689255;83;21338;-79
2021/07/20 11:20:17;;;;;;;15.03;11.63;;;;;;;22.33;63.29;96558.47;1692362;83;20948;-79
2021/07/20 11:22:43;;;;;;;12.78;10.20;;;;;;;22.37;62.25;96554.27;1691078;83;20945;-79
2021/07/20 11:25:10;;;;;;;15.78;10.78;;;;;;;22.53;63.05;96552.53;1682528;83;20893;-78
2021/07/20 11:27:39;;;;;;;11.22;9.75;;;;;;;22.68;63.46;96551.33;1680775;85;20950;-79
2021/07/20 11:30:12;;;;;;;11.45;9.35;;;;;;;22.83;62.27;96546.70;1690374;83;20953;-79
2021/07/20 11:32:39;;;;;;;10.70;8.08;;;;;;;22.89;61.29;96552.28;1676552;83;21016;-79
2021/07/20 11:35:13;;;;;;;12.58;8.78;;;;;;;23.02;59.67;96561.12;1691628;83;21513;-79
2021/07/20 11:37:42;;;;;;;9.95;8.08;;;;;;;23.13;59.63;96560.66;1701886;83;20950;-80
2021/07/20 11:40:24;;;;;;;11.45;8.33;;;;;;;23.00;59.60;96558.73;1706128;82;21006;-79
2021/07/20 11:43:06;;;;;;;11.43;7.35;;;;;;;22.76;58.74;96552.16;1703803;82;21044;-79